Time;durP1;ratioP1;P1;durP2;ratioP2;P2;SDS_P1;SDS_P2;PMS_P1;PMS_P2;Temp;Humidity;BMP_temperature;BMP_pressure;BME280_temperature;BME280_humidity;BME280_pressure;Samples;Min_cycle;Max_cycle;Signal;HPM_P1;HPM_P2
2022/09/05 00:01:52;;;;;;;5.80;4.25;;;18.20;96.00;;;;;;5041792;28;20051;-70
2022/09/05 00:04:47;;;;;;;5.47;4.85;;;18.60;97.00;;;;;;5046939;28;20493;-70
2022/09/05 00:07:29;;;;;;;10.63;5.93;;;18.70;96.30;;;;;;5040099;28;20533;-70
2022/09/05 00:10:13;;;;;;;7.82;4.88;;;18.70;96.20;;;;;;5023995;28;20075;-70
2022/09/05 00:12:40;;;;;;;6.53;4.97;;;18.50;95.70;;;;;;5037518;28;20136;-70
2022/09/05 00:15:22;;;;;;;8.65;4.68;;;18.50;96.70;;;;;;5034500;28;20029;-70
2022/09/05 00:18:15;;;;;;;5.75;4.45;;;18.70;96.40;;;;;;5048402;28;20603;-70
2022/09/05 00:21:17;;;;;;;6.32;4.32;;;18.50;96.40;;;;;;5032596;28;20124;-70
2022/09/05 00:24:11;;;;;;;5.60;4.97;;;18.60;96.60;;;;;;5046226;28;20094;-70
2022/09/05 00:26:43;;;;;;;6.95;4.72;;;18.50;96.60;;;;;;5048331;28;20025;-70
2022/09/05 00:29:17;;;;;;;6.95;4.57;;;18.60;96.20;;;;;;5048638;28;20024;-70
2022/09/05 00:31:59;;;;;;;5.30;4.53;;;18.50;96.80;;;;;;5035287;28;20025;-70
2022/09/05 00:34:37;;;;;;;5.45;4.82;;;18.30;97.00;;;;;;5048283;28;20103;-70
2022/09/05 00:37:04;;;;;;;6.15;5.55;;;18.40;97.10;;;;;;5048371;28;20516;-70
2022/09/05 00:39:41;;;;;;;7.00;5.20;;;18.20;97.70;;;;;;5045983;28;20576;-70
2022/09/05 00:42:15;;;;;;;4.97;4.43;;;18.20;98.20;;;;;;5048360;28;20029;-70
2022/09/05 00:45:08;;;;;;;5.18;4.68;;;18.20;97.70;;;;;;5048192;28;20211;-70
2022/09/05 00:47:45;;;;;;;5.75;4.50;;;18.20;98.50;;;;;;5038991;28;20064;-70
2022/09/05 00:50:53;;;;;;;6.10;4.65;;;18.10;97.40;;;;;;5033838;28;20041;-70
2022/09/05 00:53:32;;;;;;;6.85;4.90;;;18.10;97.90;;;;;;4967573;28;20467;-70
2022/09/05 00:56:05;;;;;;;7.68;4.97;;;19.20;99.10;;;;;;4961183;28;20033;-70
2022/09/05 00:58:56;;;;;;;6.85;4.90;;;17.90;98.90;;;;;;4950609;28;20047;-70
2022/09/05 01:02:11;;;;;;;5.57;4.63;;;18.00;98.40;;;;;;4973427;28;20073;-70
2022/09/05 01:04:52;;;;;;;4.63;4.22;;;17.80;99.20;;;;;;4902854;29;20132;-70
2022/09/05 01:07:25;;;;;;;5.47;4.35;;;17.90;98.50;;;;;;4880519;29;20351;-70
2022/09/05 01:10:09;;;;;;;7.22;5.13;;;17.70;98.70;;;;;;4882246;29;20674;-70
2022/09/05 01:12:45;;;;;;;6.75;4.43;;;17.60;99.30;;;;;;4895283;29;20056;-70
2022/09/05 01:15:22;;;;;;;7.85;4.95;;;17.80;98.00;;;;;;4900727;29;20128;-70
2022/09/05 01:17:50;;;;;;;7.05;5.78;;;17.70;98.10;;;;;;4885102;29;20184;-70
2022/09/05 01:20:28;;;;;;;5.05;4.60;;;17.80;98.00;;;;;;4900857;29;20418;-70
2022/09/05 01:23:20;;;;;;;6.45;5.85;;;17.80;99.30;;;;;;4898596;29;20029;-70
2022/09/05 01:26:20;;;;;;;7.90;5.40;;;17.80;98.50;;;;;;4939518;29;20037;-70
2022/09/05 01:28:51;;;;;;;7.80;5.43;;;17.70;98.50;;;;;;4916719;29;20101;-70
2022/09/05 01:31:39;;;;;;;6.88;5.50;;;17.80;99.20;;;;;;4946859;29;20527;-70
2022/09/05 01:34:20;;;;;;;7.53;5.93;;;17.70;98.70;;;;;;4928464;29;20047;-70
2022/09/05 01:36:57;;;;;;;6.85;4.75;;;17.70;98.60;;;;;;4932589;29;20054;-70
2022/09/05 01:39:50;;;;;;;11.10;6.78;;;18.40;99.60;;;;;;4936621;29;20035;-70
2022/09/05 01:42:24;;;;;;;7.32;6.55;;;17.60;99.00;;;;;;5020569;28;20021;-70
2022/09/05 01:45:05;;;;;;;7.28;6.18;;;17.60;99.00;;;;;;5009717;28;20036;-70
2022/09/05 01:47:43;;;;;;;7.18;6.55;;;17.70;98.90;;;;;;5021119;28;20423;-70
2022/09/05 01:50:26;;;;;;;7.30;6.60;;;17.70;99.50;;;;;;5013427;28;20044;-70
2022/09/05 01:53:32;;;;;;;8.93;7.10;;;17.80;98.80;;;;;;5015549;28;20045;-70
2022/09/05 01:56:18;;;;;;;9.55;6.75;;;17.70;98.90;;;;;;5004318;28;20048;-70
2022/09/05 01:58:59;;;;;;;6.82;6.13;;;17.80;99.00;;;;;;5015838;28;20037;-70
2022/09/05 02:01:51;;;;;;;8.82;6.93;;;17.70;98.30;;;;;;5012815;28;20028;-70
2022/09/05 02:04:35;;;;;;;8.82;7.32;;;17.70;98.90;;;;;;5009435;28;20087;-70
2022/09/05 02:07:07;;;;;;;;;;;17.60;99.70;;;;;;5024009;28;20028;-70
2022/09/05 02:10:06;;;;;;;7.68;6.78;;;17.70;99.00;;;;;;5007206;28;19920;-70
2022/09/05 02:12:56;;;;;;;9.30;7.40;;;17.70;98.90;;;;;;5019704;28;20103;-70
2022/09/05 02:15:25;;;;;;;8.35;7.68;;;17.60;99.00;;;;;;5038960;28;20045;-70
2022/09/05 02:17:55;;;;;;;9.43;8.52;;;17.80;99.50;;;;;;5044879;28;20033;-72
2022/09/05 02:20:47;;;;;;;9.85;8.95;;;17.70;99.60;;;;;;5046681;28;20362;-71
2022/09/05 02:23:18;;;;;;;8.88;7.47;;;17.70;99.10;;;;;;5046743;28;20383;-70
2022/09/05 02:26:15;;;;;;;8.45;7.63;;;17.60;99.00;;;;;;5047052;28;20018;-70
2022/09/05 02:29:02;;;;;;;8.70;7.88;;;17.60;99.20;;;;;;5046903;28;20373;-70
2022/09/05 02:31:33;;;;;;;8.88;8.18;;;17.70;99.20;;;;;;5042982;28;20029;-71
2022/09/05 02:34:38;;;;;;;8.60;7.78;;;17.60;99.90;;;;;;5046128;28;20052;-72
2022/09/05 02:37:42;;;;;;;9.90;8.45;;;17.60;99.30;;;;;;5046763;28;20584;-70
2022/09/05 02:40:36;;;;;;;8.63;7.72;;;17.60;99.90;;;;;;5045838;28;20489;-70
2022/09/05 02:43:09;;;;;;;9.27;8.38;;;17.70;99.60;;;;;;5046558;28;20017;-73
2022/09/05 02:45:50;;;;;;;;;;;17.50;99.90;;;;;;5047133;28;20013;-70
2022/09/05 02:48:34;;;;;;;10.43;8.18;;;17.50;99.50;;;;;;5048879;28;19924;-72
2022/09/05 02:51:04;;;;;;;;;;;18.30;99.90;;;;;;5048012;28;20049;-72
2022/09/05 02:53:33;;;;;;;8.68;7.93;;;17.40;99.90;;;;;;5030500;28;20016;-72
2022/09/05 02:56:02;;;;;;;8.05;7.30;;;17.40;99.90;;;;;;5042213;28;20417;-72
2022/09/05 02:58:46;;;;;;;9.27;8.32;;;17.50;99.90;;;;;;5030035;28;20124;-72
2022/09/05 03:01:25;;;;;;;9.90;7.95;;;17.30;99.90;;;;;;5037155;28;20362;-72
2022/09/05 03:03:58;;;;;;;9.77;8.82;;;17.30;99.90;;;;;;5032347;28;20087;-72
2022/09/05 03:07:01;;;;;;;9.52;8.63;;;17.30;99.80;;;;;;5015552;28;20137;-72
2022/09/05 03:09:44;;;;;;;11.63;9.13;;;17.30;99.90;;;;;;5043697;28;20063;-72
2022/09/05 03:12:23;;;;;;;9.85;8.85;;;17.20;99.90;;;;;;5041905;28;20106;-72
2022/09/05 03:14:58;;;;;;;9.18;8.27;;;17.20;99.90;;;;;;5042149;28;20126;-72
2022/09/05 03:17:42;;;;;;;11.57;10.43;;;17.20;99.60;;;;;;5033762;28;20017;-72
2022/09/05 03:20:10;;;;;;;;;;;18.70;99.90;;;;;;5025710;28;20402;-72
2022/09/05 03:22:38;;;;;;;10.68;9.57;;;17.00;99.90;;;;;;5029243;28;19909;-72
2022/09/05 03:25:31;;;;;;;11.32;10.10;;;17.10;99.90;;;;;;5029699;28;20033;-72
2022/09/05 03:28:15;;;;;;;12.50;11.38;;;17.20;99.90;;;;;;5026036;28;20049;-72
2022/09/05 03:30:54;;;;;;;;;;;17.20;99.90;;;;;;5028019;28;20032;-72
2022/09/05 03:33:57;;;;;;;11.82;10.63;;;17.10;99.90;;;;;;5032351;28;19949;-72
2022/09/05 03:37:05;;;;;;;12.23;11.02;;;17.10;99.90;;;;;;5032245;28;20079;-72
2022/09/05 03:39:31;;;;;;;12.38;11.27;;;17.10;99.90;;;;;;5037738;28;20116;-72
2022/09/05 03:42:05;;;;;;;15.38;13.73;;;17.10;99.90;;;;;;5049512;28;20537;-72
2022/09/05 03:44:51;;;;;;;14.23;12.75;;;17.10;99.90;;;;;;5026082;28;20040;-72
2022/09/05 03:47:30;;;;;;;14.57;13.07;;;17.10;99.90;;;;;;5041629;28;20021;-72
2022/09/05 03:50:09;;;;;;;14.68;13.27;;;17.20;99.90;;;;;;5031302;28;20098;-72
2022/09/05 03:52:53;;;;;;;15.10;13.60;;;17.20;99.90;;;;;;5042529;28;20026;-72
2022/09/05 03:55:45;;;;;;;15.50;13.93;;;17.40;99.90;;;;;;5035677;28;20044;-72
2022/09/05 03:58:23;;;;;;;14.13;12.82;;;17.20;99.90;;;;;;5032380;28;20453;-72
2022/09/05 04:01:11;;;;;;;14.70;13.18;;;17.20;99.90;;;;;;5037422;28;20386;-72
2022/09/05 04:03:42;;;;;;;15.57;13.82;;;17.20;99.90;;;;;;5033832;28;20072;-72
2022/09/05 04:06:20;;;;;;;16.23;14.68;;;17.30;99.90;;;;;;5038365;28;20398;-72
2022/09/05 04:09:00;;;;;;;15.52;13.93;;;17.30;99.90;;;;;;5040333;28;20024;-72
2022/09/05 04:11:42;;;;;;;15.63;13.77;;;17.20;99.90;;;;;;5046937;28;20021;-71
2022/09/05 04:14:20;;;;;;;17.70;15.93;;;17.20;99.90;;;;;;5042957;28;20111;-72
2022/09/05 04:17:02;;;;;;;17.40;15.57;;;17.20;99.90;;;;;;5048980;28;20020;-72
2022/09/05 04:19:42;;;;;;;17.88;16.08;;;17.20;99.90;;;;;;5048716;28;20322;-72
2022/09/05 04:22:29;;;;;;;15.30;13.80;;;17.20;99.90;;;;;;5048924;28;20416;-72
2022/09/05 04:25:03;;;;;;;16.25;14.55;;;17.20;99.90;;;;;;5037059;28;20136;-72
2022/09/05 04:27:31;;;;;;;18.23;16.33;;;17.20;99.90;;;;;;5048922;28;20088;-72
2022/09/05 04:30:00;;;;;;;16.17;14.57;;;17.20;99.90;;;;;;5048181;28;20033;-72
2022/09/05 04:32:44;;;;;;;16.27;14.60;;;18.40;99.90;;;;;;5048676;28;20025;-72
2022/09/05 04:35:27;;;;;;;17.42;15.63;;;17.10;99.90;;;;;;5048364;28;20033;-72
2022/09/05 04:38:34;;;;;;;16.42;14.95;;;17.30;99.90;;;;;;5047030;28;20025;-72
2022/09/05 04:41:11;;;;;;;16.45;14.85;;;17.00;99.90;;;;;;5048540;28;20096;-72
2022/09/05 04:43:45;;;;;;;17.75;15.05;;;16.90;99.90;;;;;;5042079;28;20033;-72
2022/09/05 04:46:21;;;;;;;15.68;14.07;;;16.80;99.90;;;;;;5034866;28;20514;-72
2022/09/05 04:49:00;;;;;;;16.27;14.80;;;16.80;99.90;;;;;;5037992;28;20025;-72
2022/09/05 04:51:44;;;;;;;20.15;15.80;;;16.80;99.90;;;;;;5048152;28;20327;-72
2022/09/05 04:54:24;;;;;;;16.60;14.90;;;16.80;99.90;;;;;;5022577;28;20048;-72
2022/09/05 04:56:55;;;;;;;17.52;15.73;;;16.70;99.90;;;;;;5042377;28;20422;-72
2022/09/05 04:59:25;;;;;;;17.70;16.02;;;16.60;99.90;;;;;;5032926;28;20025;-72
2022/09/05 05:01:55;;;;;;;18.30;16.40;;;16.80;99.90;;;;;;5034339;28;20026;-72
2022/09/05 05:04:23;;;;;;;17.65;15.98;;;17.80;99.90;;;;;;5031130;28;20021;-72
2022/09/05 05:07:09;;;;;;;20.02;16.67;;;16.60;99.90;;;;;;5038770;28;20096;-72
2022/09/05 05:09:43;;;;;;;17.42;15.63;;;16.70;99.90;;;;;;5040582;28;20207;-72
2022/09/05 05:12:45;;;;;;;20.23;17.17;;;16.60;99.90;;;;;;5031271;28;20053;-72
2022/09/05 05:15:20;;;;;;;18.60;16.42;;;16.60;99.90;;;;;;5034877;28;20042;-72
2022/09/05 05:18:13;;;;;;;18.92;17.13;;;16.60;99.90;;;;;;5038568;28;20478;-72
2022/09/05 05:20:58;;;;;;;20.17;18.15;;;16.60;99.90;;;;;;5034537;28;20025;-72
2022/09/05 05:23:52;;;;;;;19.67;17.48;;;17.10;99.90;;;;;;5032576;28;20029;-72
2022/09/05 05:26:39;;;;;;;18.75;16.83;;;16.70;99.90;;;;;;5045803;28;20032;-72
2022/09/05 05:29:14;;;;;;;21.50;18.92;;;16.60;99.90;;;;;;5028958;28;20071;-72
2022/09/05 05:31:46;;;;;;;19.42;17.63;;;16.80;99.90;;;;;;5033280;28;20034;-70
2022/09/05 05:34:22;;;;;;;26.63;23.77;;;16.70;99.90;;;;;;5029930;28;20063;-72
2022/09/05 05:37:02;;;;;;;24.02;21.25;;;16.90;99.90;;;;;;5035046;28;20296;-72
2022/09/05 05:39:29;;;;;;;22.10;19.80;;;16.90;99.90;;;;;;5036023;28;20339;-72
2022/09/05 05:41:57;;;;;;;21.70;19.48;;;17.00;99.90;;;;;;5042551;28;20021;-72
2022/09/05 05:44:30;;;;;;;23.15;20.23;;;17.10;99.90;;;;;;5031911;28;20147;-72
2022/09/05 05:47:02;;;;;;;25.00;22.52;;;17.10;99.90;;;;;;5021413;28;20347;-72
2022/09/05 05:49:43;;;;;;;22.67;20.30;;;17.30;99.90;;;;;;5026935;28;20034;-71
2022/09/05 05:52:17;;;;;;;25.02;22.50;;;17.20;99.90;;;;;;5019749;28;20029;-72
2022/09/05 05:54:59;;;;;;;22.70;20.40;;;17.30;99.90;;;;;;5016914;28;20368;-73
2022/09/05 05:57:52;;;;;;;24.02;20.70;;;19.70;99.90;;;;;;5026168;28;20049;-72
2022/09/05 06:00:21;;;;;;;23.42;20.45;;;17.50;99.90;;;;;;5026299;28;20509;-72
2022/09/05 06:03:15;;;;;;;22.50;19.98;;;17.70;99.90;;;;;;5045117;28;20036;-72
2022/09/05 06:06:02;;;;;;;23.27;20.95;;;17.70;99.90;;;;;;5035988;28;20021;-72
2022/09/05 06:09:05;;;;;;;22.73;20.35;;;17.80;99.90;;;;;;5047071;28;20029;-72
2022/09/05 06:11:54;;;;;;;20.33;18.33;;;18.10;99.90;;;;;;5046286;28;20064;-71
2022/09/05 06:14:51;;;;;;;22.05;19.85;;;17.90;99.90;;;;;;5046420;28;20128;-72
2022/09/05 06:17:32;;;;;;;21.30;19.00;;;18.10;99.90;;;;;;5039702;28;20025;-72
2022/09/05 06:20:16;;;;;;;21.27;19.25;;;18.10;99.90;;;;;;5019808;28;20024;-72
2022/09/05 06:23:22;;;;;;;22.80;20.23;;;18.20;99.90;;;;;;5048737;28;20064;-72
2022/09/05 06:26:16;;;;;;;21.52;19.45;;;17.10;99.90;;;;;;5045317;28;20137;-72
2022/09/05 06:28:45;;;;;;;;;;;18.60;99.90;;;;;;5047668;28;20017;-72
2022/09/05 06:31:33;;;;;;;17.95;16.15;;;18.30;99.90;;;;;;5031898;28;20042;-72
2022/09/05 06:34:09;;;;;;;17.30;15.60;;;18.50;99.90;;;;;;5030589;28;20420;-72
2022/09/05 06:36:54;;;;;;;18.27;16.48;;;18.40;99.90;;;;;;5034921;28;20284;-72
2022/09/05 06:39:48;;;;;;;19.60;16.65;;;18.50;99.90;;;;;;5023488;28;20033;-72
2022/09/05 06:42:58;;;;;;;21.08;18.15;;;18.60;99.90;;;;;;5036917;28;20344;-72
2022/09/05 06:46:06;;;;;;;21.80;16.60;;;18.80;99.90;;;;;;5016855;28;20045;-72
2022/09/05 06:48:53;;;;;;;16.20;14.60;;;18.90;99.90;;;;;;5034200;28;20174;-72
2022/09/05 06:51:21;;;;;;;18.70;16.27;;;18.80;99.90;;;;;;5036239;28;20057;-72
2022/09/05 06:54:29;;;;;;;19.92;17.38;;;19.00;99.90;;;;;;5035537;28;20041;-72
2022/09/05 06:57:07;;;;;;;18.63;16.23;;;19.10;99.90;;;;;;4989357;28;20034;-72
2022/09/05 07:00:06;;;;;;;17.67;15.82;;;19.30;99.90;;;;;;4983446;28;20140;-72
2022/09/05 07:02:46;;;;;;;19.02;14.52;;;19.30;99.90;;;;;;4988467;28;20075;-72
2022/09/05 07:05:38;;;;;;;16.33;14.63;;;19.40;99.60;;;;;;4981955;28;20030;-72
2022/09/05 07:08:34;;;;;;;21.17;19.05;;;19.50;99.90;;;;;;4981814;28;20120;-72
2022/09/05 07:11:43;;;;;;;17.92;16.20;;;19.70;99.80;;;;;;4985494;28;20114;-72
2022/09/05 07:14:26;;;;;;;16.75;15.07;;;19.80;99.90;;;;;;4972292;28;20054;-72
2022/09/05 07:16:51;;;;;;;18.20;16.30;;;19.90;99.40;;;;;;4978881;28;20121;-72
2022/09/05 07:19:25;;;;;;;15.95;14.55;;;20.00;99.30;;;;;;4986632;28;20117;-73
2022/09/05 07:22:19;;;;;;;16.65;14.80;;;20.10;99.50;;;;;;4985962;28;20049;-72
2022/09/05 07:24:47;;;;;;;19.17;16.05;;;20.30;99.50;;;;;;4980065;28;20128;-72
2022/09/05 07:27:47;;;;;;;18.88;13.85;;;20.30;99.00;;;;;;4981054;28;20041;-72
2022/09/05 07:30:17;;;;;;;13.20;11.35;;;21.00;98.50;;;;;;4986666;28;20040;-72
2022/09/05 07:32:47;;;;;;;14.38;12.98;;;21.60;99.20;;;;;;4982178;28;20034;-74
2022/09/05 07:35:21;;;;;;;16.92;15.23;;;21.00;98.60;;;;;;5028037;28;20104;-72
2022/09/05 07:38:12;;;;;;;16.23;12.55;;;20.70;97.70;;;;;;5037943;28;20059;-72
2022/09/05 07:40:52;;;;;;;15.65;13.68;;;20.70;97.40;;;;;;5027216;28;20079;-72
2022/09/05 07:43:38;;;;;;;13.82;12.50;;;21.80;98.20;;;;;;5021887;28;20444;-72
2022/09/05 07:46:19;;;;;;;13.45;11.90;;;21.20;98.00;;;;;;5018915;28;20026;-72
2022/09/05 07:49:03;;;;;;;15.70;11.65;;;21.10;97.00;;;;;;5043147;28;20074;-72
2022/09/05 07:51:34;;;;;;;13.80;12.50;;;21.30;96.90;;;;;;5028954;28;20080;-72
2022/09/05 07:54:25;;;;;;;14.07;12.65;;;21.20;97.30;;;;;;5032002;28;20045;-72
2022/09/05 07:56:58;;;;;;;12.77;11.05;;;21.40;97.10;;;;;;5023330;28;20022;-71
2022/09/05 07:59:25;;;;;;;11.65;10.57;;;21.50;96.90;;;;;;5028100;28;20022;-71
2022/09/05 08:01:53;;;;;;;11.00;9.88;;;23.10;96.90;;;;;;5031709;28;20100;-71
2022/09/05 08:04:36;;;;;;;10.00;9.00;;;21.80;96.50;;;;;;5036255;28;20052;-70
2022/09/05 08:07:10;;;;;;;11.82;10.63;;;21.60;95.80;;;;;;5043096;28;20040;-70
2022/09/05 08:09:55;;;;;;;10.60;9.63;;;22.00;96.40;;;;;;5039923;28;20018;-70
2022/09/05 08:12:29;;;;;;;13.23;11.82;;;21.80;95.40;;;;;;5041829;28;20458;-70
2022/09/05 08:15:07;;;;;;;12.75;10.70;;;21.80;96.30;;;;;;5025140;28;20510;-70
2022/09/05 08:17:40;;;;;;;11.52;10.43;;;21.90;96.00;;;;;;5038321;28;20120;-70
2022/09/05 08:20:26;;;;;;;10.45;9.38;;;22.60;95.80;;;;;;5035107;28;20037;-70
2022/09/05 08:22:54;;;;;;;13.52;10.20;;;22.10;94.90;;;;;;5042264;28;20111;-70
2022/09/05 08:25:29;;;;;;;10.35;9.45;;;22.20;94.40;;;;;;5045037;28;20100;-70
2022/09/05 08:28:02;;;;;;;13.00;9.77;;;23.20;95.70;;;;;;5040645;28;20021;-70
2022/09/05 08:30:36;;;;;;;12.50;9.13;;;22.60;95.30;;;;;;5031746;28;20123;-70
2022/09/05 08:33:06;;;;;;;9.57;8.68;;;22.40;95.10;;;;;;5028492;28;20030;-70
2022/09/05 08:35:43;;;;;;;10.10;8.82;;;22.50;94.90;;;;;;5037816;28;20095;-70
2022/09/05 08:38:12;;;;;;;9.05;7.30;;;22.50;94.10;;;;;;5030721;28;20090;-70
2022/09/05 08:40:57;;;;;;;8.35;7.25;;;22.50;94.60;;;;;;5028287;28;20013;-70
2022/09/05 08:43:35;;;;;;;10.60;7.35;;;22.60;93.90;;;;;;5038122;28;20025;-70
2022/09/05 08:46:12;;;;;;;7.90;6.95;;;22.80;93.90;;;;;;5034603;28;20470;-70
2022/09/05 08:49:12;;;;;;;8.43;7.53;;;22.10;93.60;;;;;;5024870;28;20021;-70
2022/09/05 08:52:03;;;;;;;11.35;6.65;;;22.90;93.70;;;;;;5033308;28;20053;-70
2022/09/05 08:54:50;;;;;;;10.15;7.10;;;23.10;93.30;;;;;;5025104;28;20069;-70
2022/09/05 08:57:35;;;;;;;8.73;7.47;;;23.20;92.80;;;;;;5027074;28;20026;-70
2022/09/05 09:00:06;;;;;;;9.00;6.35;;;23.30;92.10;;;;;;5041342;28;20039;-70
2022/09/05 09:02:35;;;;;;;6.80;5.82;;;23.40;92.80;;;;;;5042087;28;20141;-70
2022/09/05 09:05:29;;;;;;;6.32;4.88;;;23.70;91.60;;;;;;5027355;28;20470;-70
2022/09/05 09:08:00;;;;;;;7.80;5.40;;;23.70;91.70;;;;;;5034660;28;20032;-70
2022/09/05 09:10:56;;;;;;;4.97;4.28;;;24.20;91.90;;;;;;5026065;28;20033;-71
2022/09/05 09:13:52;;;;;;;5.50;4.15;;;24.10;91.30;;;;;;5017061;28;20052;-70
2022/09/05 09:16:49;;;;;;;6.97;4.20;;;24.10;91.00;;;;;;5025121;28;20021;-71
2022/09/05 09:19:29;;;;;;;3.97;3.38;;;24.20;90.60;;;;;;5026561;28;20022;-70
2022/09/05 09:22:14;;;;;;;6.72;2.83;;;24.60;91.20;;;;;;5033080;28;20013;-70
2022/09/05 09:25:12;;;;;;;4.65;3.10;;;24.30;90.70;;;;;;5040911;28;20017;-70
2022/09/05 09:27:55;;;;;;;5.07;3.28;;;24.40;89.50;;;;;;5047946;28;20096;-70
2022/09/05 09:30:21;;;;;;;4.70;2.42;;;24.50;87.90;;;;;;5046938;28;20089;-71
2022/09/05 09:32:48;;;;;;;3.83;2.92;;;24.60;89.00;;;;;;5043621;28;20029;-70
2022/09/05 09:35:35;;;;;;;4.43;2.60;;;24.90;87.90;;;;;;5037132;28;20364;-71
2022/09/05 09:38:04;;;;;;;4.15;2.70;;;25.10;87.40;;;;;;5025899;28;20498;-71
2022/09/05 09:40:45;;;;;;;3.40;2.88;;;25.20;85.40;;;;;;5026952;28;20530;-71
2022/09/05 09:43:26;;;;;;;2.63;2.00;;;25.20;84.00;;;;;;5024304;28;20451;-71
2022/09/05 09:46:18;;;;;;;4.13;1.92;;;25.30;82.90;;;;;;5032147;28;20033;-71
2022/09/05 09:48:48;;;;;;;3.58;2.08;;;25.40;82.90;;;;;;5022007;28;20477;-71
2022/09/05 09:51:25;;;;;;;4.20;2.30;;;25.40;83.40;;;;;;5026548;28;20034;-71
2022/09/05 09:54:28;;;;;;;5.35;2.63;;;25.60;81.00;;;;;;5023033;28;20033;-71
2022/09/05 09:57:09;;;;;;;4.25;2.00;;;25.80;80.50;;;;;;5037381;28;20035;-71
2022/09/05 09:59:58;;;;;;;4.70;2.25;;;25.90;77.50;;;;;;5041545;28;20097;-71
2022/09/05 10:02:44;;;;;;;2.72;1.60;;;26.00;78.00;;;;;;5034851;28;20018;-71
2022/09/05 10:05:45;;;;;;;2.22;2.03;;;25.90;77.20;;;;;;5033382;28;20426;-71
2022/09/05 10:08:28;;;;;;;4.75;1.13;;;26.00;77.40;;;;;;5043467;28;20040;-71
2022/09/05 10:11:17;;;;;;;2.75;1.73;;;26.10;77.40;;;;;;5046842;28;20067;-70
2022/09/05 10:14:13;;;;;;;2.63;1.58;;;26.10;79.10;;;;;;5037290;28;20045;-71
2022/09/05 10:16:52;;;;;;;3.15;1.50;;;26.20;75.60;;;;;;5025826;28;20025;-71
2022/09/05 10:19:45;;;;;;;3.42;1.50;;;26.10;75.10;;;;;;5035428;28;20350;-71
2022/09/05 10:22:50;;;;;;;5.55;1.40;;;26.20;74.70;;;;;;5038413;28;20036;-71
2022/09/05 10:25:43;;;;;;;4.47;1.30;;;26.30;73.70;;;;;;5046064;28;20059;-71
2022/09/05 10:28:17;;;;;;;1.75;1.25;;;26.30;73.40;;;;;;5043832;28;20276;-71
2022/09/05 10:30:55;;;;;;;1.17;0.88;;;26.40;73.00;;;;;;5025598;28;20018;-70
2022/09/05 10:33:28;;;;;;;1.42;1.10;;;26.60;72.00;;;;;;5044222;28;20056;-72
2022/09/05 10:36:17;;;;;;;1.50;0.70;;;26.60;73.40;;;;;;5042802;28;20032;-71
2022/09/05 10:38:48;;;;;;;4.35;1.27;;;26.60;73.00;;;;;;5042573;28;20048;-71
2022/09/05 10:41:20;;;;;;;1.20;1.10;;;26.50;72.50;;;;;;5028472;28;20021;-71
2022/09/05 10:44:01;;;;;;;3.22;1.10;;;26.60;72.00;;;;;;5028967;28;20378;-71
2022/09/05 10:46:38;;;;;;;1.60;0.75;;;26.50;72.10;;;;;;5034405;28;20499;-71
2022/09/05 10:49:08;;;;;;;2.67;1.05;;;26.50;70.00;;;;;;5031001;28;20037;-71
2022/09/05 10:52:04;;;;;;;3.88;0.95;;;26.50;71.70;;;;;;5028745;28;20523;-71
2022/09/05 10:54:59;;;;;;;2.25;1.20;;;26.50;69.20;;;;;;5029621;28;20063;-70
2022/09/05 10:57:49;;;;;;;2.97;1.00;;;27.30;71.20;;;;;;5043707;28;20017;-72
2022/09/05 11:00:37;;;;;;;3.00;1.20;;;26.60;68.20;;;;;;5045467;28;20021;-70
2022/09/05 11:03:03;;;;;;;3.38;0.98;;;26.80;67.80;;;;;;5026917;28;20032;-72
2022/09/05 11:05:36;;;;;;;1.92;0.90;;;26.80;68.50;;;;;;5039061;28;20309;-70
2022/09/05 11:08:25;;;;;;;1.58;0.85;;;26.90;68.50;;;;;;5041911;28;20200;-69
2022/09/05 11:11:15;;;;;;;1.25;0.80;;;27.00;67.00;;;;;;5042360;28;20024;-70
2022/09/05 11:13:50;;;;;;;2.58;0.82;;;27.00;66.10;;;;;;5033198;28;20087;-70
2022/09/05 11:16:27;;;;;;;1.13;0.82;;;26.90;67.20;;;;;;5033385;28;20026;-70
2022/09/05 11:18:53;;;;;;;2.67;0.68;;;26.80;65.50;;;;;;5030729;28;20088;-69
2022/09/05 11:21:28;;;;;;;3.75;1.00;;;27.50;67.30;;;;;;5033071;28;20025;-70
2022/09/05 11:24:20;;;;;;;1.83;0.77;;;27.10;66.70;;;;;;5044456;28;20073;-69
2022/09/05 11:27:08;;;;;;;2.05;0.82;;;27.20;64.30;;;;;;5043851;28;20383;-69
2022/09/05 11:29:46;;;;;;;1.45;0.75;;;27.00;63.90;;;;;;5038473;28;20025;-70
2022/09/05 11:32:48;;;;;;;1.95;0.82;;;26.90;65.90;;;;;;5038270;28;20415;-71
2022/09/05 11:35:19;;;;;;;1.20;0.70;;;27.00;64.70;;;;;;5024761;28;20122;-69
2022/09/05 11:37:51;;;;;;;2.72;0.90;;;26.90;66.00;;;;;;5033888;28;20036;-69
2022/09/05 11:40:47;;;;;;;0.95;0.80;;;27.00;64.10;;;;;;5038075;28;20055;-69
2022/09/05 11:43:34;;;;;;;1.15;0.77;;;26.90;64.20;;;;;;5039598;28;20021;-70
2022/09/05 11:46:30;;;;;;;1.77;0.80;;;27.10;64.40;;;;;;5027308;28;20029;-70
2022/09/05 11:49:20;;;;;;;2.65;0.93;;;27.10;64.10;;;;;;5039890;28;20021;-69
2022/09/05 11:51:48;;;;;;;1.90;1.17;;;27.10;64.30;;;;;;5030952;28;20478;-69
2022/09/05 11:54:47;;;;;;;1.55;0.80;;;27.40;62.20;;;;;;5040170;28;20111;-70
2022/09/05 11:57:41;;;;;;;1.65;0.80;;;27.10;63.10;;;;;;5033191;28;20071;-69
2022/09/05 12:00:14;;;;;;;2.90;0.90;;;27.30;62.70;;;;;;5034715;28;20049;-70
2022/09/05 12:03:17;;;;;;;1.23;0.98;;;27.40;64.10;;;;;;5035465;28;20053;-69
2022/09/05 12:06:07;;;;;;;2.38;1.00;;;27.30;62.40;;;;;;5033381;28;20052;-70
2022/09/05 12:08:49;;;;;;;1.40;0.75;;;27.30;62.60;;;;;;5028364;28;20521;-69
2022/09/05 12:11:26;;;;;;;1.50;0.82;;;27.30;64.00;;;;;;5036504;28;20075;-70
2022/09/05 12:13:57;;;;;;;3.33;1.33;;;27.30;62.40;;;;;;5035826;28;20048;-70
2022/09/05 12:16:55;;;;;;;1.80;0.80;;;27.40;63.90;;;;;;5038990;28;20097;-70
2022/09/05 12:19:20;;;;;;;2.00;0.95;;;27.40;61.60;;;;;;5038293;28;20085;-70
2022/09/05 12:22:12;;;;;;;1.52;0.80;;;27.70;61.70;;;;;;5029056;28;20081;-69
2022/09/05 12:25:01;;;;;;;1.60;0.82;;;27.70;62.40;;;;;;5041278;28;20099;-70
2022/09/05 12:27:31;;;;;;;1.40;0.90;;;27.50;59.00;;;;;;5031260;28;20573;-70
2022/09/05 12:30:03;;;;;;;1.02;0.90;;;27.60;61.10;;;;;;5033818;28;20022;-70
2022/09/05 12:32:30;;;;;;;1.50;0.93;;;27.70;60.20;;;;;;5028351;28;20037;-70
2022/09/05 12:34:58;;;;;;;1.17;0.80;;;27.80;60.10;;;;;;5028652;28;20483;-70
2022/09/05 12:37:44;;;;;;;2.58;0.93;;;27.80;60.00;;;;;;5026133;28;20450;-71
2022/09/05 12:40:13;;;;;;;1.92;0.90;;;28.00;59.10;;;;;;5028225;28;20486;-70
2022/09/05 12:42:54;;;;;;;2.45;1.20;;;27.80;59.50;;;;;;5028769;28;20025;-70
2022/09/05 12:45:57;;;;;;;1.83;0.70;;;27.80;58.40;;;;;;5022842;28;20529;-70
2022/09/05 12:48:41;;;;;;;2.72;0.60;;;28.00;59.30;;;;;;5016652;28;20433;-70
2022/09/05 12:51:19;;;;;;;1.73;0.90;;;28.00;58.50;;;;;;5033499;28;20052;-70
2022/09/05 12:54:00;;;;;;;2.20;0.60;;;28.10;60.50;;;;;;5044639;28;20394;-70
2022/09/05 12:56:31;;;;;;;3.05;0.93;;;28.20;60.90;;;;;;5038244;28;20017;-69
2022/09/05 12:58:58;;;;;;;3.40;0.90;;;28.10;58.00;;;;;;5039388;28;20108;-70
2022/09/05 13:01:30;;;;;;;1.90;0.60;;;28.10;60.00;;;;;;5031995;28;20017;-70
2022/09/05 13:04:05;;;;;;;1.98;0.90;;;29.00;60.50;;;;;;5031706;28;20014;-70
2022/09/05 13:06:40;;;;;;;1.65;0.98;;;28.40;58.10;;;;;;5029598;28;20029;-70
2022/09/05 13:09:34;;;;;;;1.55;0.60;;;28.40;57.30;;;;;;5032917;28;20036;-70
2022/09/05 13:12:32;;;;;;;0.70;0.63;;;28.30;58.40;;;;;;5032635;28;20041;-69
2022/09/05 13:15:22;;;;;;;2.05;0.85;;;28.70;58.50;;;;;;5026801;28;20083;-71
2022/09/05 13:18:08;;;;;;;1.27;0.85;;;28.50;58.00;;;;;;5025932;28;20378;-70
2022/09/05 13:20:38;;;;;;;2.80;0.60;;;28.60;57.50;;;;;;5020106;28;20099;-71
2022/09/05 13:23:25;;;;;;;2.47;1.15;;;29.90;59.50;;;;;;5024897;28;20036;-70
2022/09/05 13:26:10;;;;;;;1.83;0.90;;;28.70;59.30;;;;;;5024678;28;20513;-70
2022/09/05 13:28:51;;;;;;;1.63;0.70;;;28.70;57.70;;;;;;5038358;28;20029;-70
2022/09/05 13:31:40;;;;;;;0.90;0.70;;;28.70;57.80;;;;;;5041907;28;20639;-70
2022/09/05 13:34:29;;;;;;;1.73;0.80;;;28.70;56.70;;;;;;5044440;28;20087;-70
2022/09/05 13:37:02;;;;;;;0.80;0.68;;;28.60;57.10;;;;;;5041545;28;20039;-70
2022/09/05 13:39:51;;;;;;;2.00;0.70;;;28.70;58.60;;;;;;5041903;28;20104;-70
2022/09/05 13:42:20;;;;;;;0.95;0.77;;;28.90;56.80;;;;;;5039168;28;20027;-70
2022/09/05 13:44:52;;;;;;;2.35;0.68;;;29.50;58.60;;;;;;5042909;28;20446;-70
2022/09/05 13:47:26;;;;;;;1.63;0.77;;;29.30;58.10;;;;;;5039984;28;20363;-71
2022/09/05 13:50:21;;;;;;;1.27;0.70;;;29.50;55.80;;;;;;5031971;28;20057;-71
2022/09/05 13:52:51;;;;;;;3.08;0.93;;;29.50;55.00;;;;;;5041196;28;20032;-70
2022/09/05 13:55:41;;;;;;;1.67;0.77;;;29.70;56.50;;;;;;5038268;28;20653;-70
2022/09/05 13:58:10;;;;;;;1.85;0.70;;;29.90;55.00;;;;;;5026384;28;20022;-70